Impacts TAF Board INFO
FOR SITUATIONAL AWARENESS. NOT TO BE USED FOR FLIGHT PLANNING PURPOSES.
IDs:

KBWI - Baltimore-Washington, MD, US

Issued at 0849 UTC 24 Jun 2018
Updated at 1040 UTC 24 Jun 2018
Potential Impact None Slight Moderate High
Time0954Z 24/11Z 24/12Z 24/13Z 24/14Z 24/15Z 24/16Z 24/17Z 24/18Z 24/19Z 24/20Z 24/21Z 24/22Z 24/23Z>>
Type OBS PRVL PRVL PRVL PRVL PRVL PRVL PRVL PRVL PRVL PRVL PRVL PRVL PRVL
VIS 7 5 >6 >6 >6 >6 >6 >6 >6 >6 >6 >6 >6 >6
CIG 90 -- 90 90 90 90 90 90 50 50 50 50 50 50
Cover BKN SCT BKN BKN BKN BKN BKN BKN BKN BKN BKN BKN BKN BKN
FltCat VFR MVFR VFR VFR VFR VFR VFR VFR VFR VFR VFR VFR VFR VFR
WX BCFG BR -- -- -- -- -- -- -- -- -- -- -- --
WDir VRB VRB 260 260 260 260 260 260 250 250 250 250 250 250
WSpd 0 3 4 4 4 4 4 4 7 7 7 7 7 7
WGst -- -- -- -- -- -- -- -- -- -- -- -- -- --

Raw TAF
KBWI 240849Z 2409/2512 VRB03KT 5SM BR SCT150
  FM241200 26004KT P6SM SCT045 BKN090
  FM241800 25007KT P6SM BKN050
  FM250000 28006KT P6SM SCT050
  FM250400 29006KT P6SM SCT200
  FM251100 33006KT P6SM SCT200


Raw METAR
KBWI 240954Z 00000KT 7SM BCFG FEW075 BKN090 BKN250 19/19 A2983 RMK AO2 SLP100 T01940194
KBWI 240854Z 00000KT 9SM SCT090 BKN250 20/20 A2982 RMK AO2 SLP097 T02000200 53001
KBWI 240754Z 23003KT 10SM FEW080 SCT250 20/20 A2982 RMK AO2 SLP095 T02000200

METAR Board
Radar Display
Forecast Discussion

FOR SITUATIONAL AWARENESS. NOT TO BE USED FOR FLIGHT PLANNING PURPOSES.